Time;durP1;ratioP1;P1;durP2;ratioP2;P2;SDS_P1;SDS_P2;PMS_P1;PMS_P2;Temp;Humidity;BMP_temperature;BMP_pressure;BME280_temperature;BME280_humidity;BME280_pressure;Samples;Min_cycle;Max_cycle;Signal;HPM_P1;HPM_P2
2023/03/19 00:03:28;;;;;;;;;;;;;;;19.98;42.30;95294.84;10476503;28;2040;-60
2023/03/19 00:08:28;;;;;;;;;;;;;;;19.98;42.55;95305.38;10472798;28;1966;-60
2023/03/19 00:13:29;;;;;;;;;;;;;;;19.95;42.35;95300.66;10477265;28;2069;-60
2023/03/19 00:18:30;;;;;;;;;;;;;;;19.95;42.56;95298.03;10477861;28;1959;-60
2023/03/19 00:23:31;;;;;;;;;;;;;;;19.94;42.27;95299.09;10475446;28;2007;-60
2023/03/19 00:28:31;;;;;;;;;;;;;;;19.92;42.34;95297.81;10471996;28;2056;-60
2023/03/19 00:33:42;;;;;;;;;;;;;;;19.92;42.33;95295.19;10474085;28;1915;-61
2023/03/19 00:38:43;;;;;;;;;;;;;;;19.91;42.31;95301.50;10463095;28;2096;-60
2023/03/19 00:43:45;;;;;;;;;;;;;;;19.89;42.20;95307.03;10476172;28;2060;-60
2023/03/19 00:48:46;;;;;;;;;;;;;;;19.88;42.17;95304.69;10479770;28;2274;-60
2023/03/19 00:53:46;;;;;;;;;;;;;;;19.87;42.29;95311.00;10451902;28;2187;-60
2023/03/19 00:58:47;;;;;;;;;;;;;;;19.86;42.01;95312.06;10474437;28;1947;-61
2023/03/19 01:03:47;;;;;;;;;;;;;;;19.84;41.98;95309.72;10475589;28;2156;-61
2023/03/19 01:08:48;;;;;;;;;;;;;;;19.84;42.09;95303.69;10474770;28;1936;-61
2023/03/19 01:13:49;;;;;;;;;;;;;;;19.81;42.04;95299.75;10473779;28;2254;-61
2023/03/19 01:18:49;;;;;;;;;;;;;;;19.82;42.09;95306.59;10469741;28;1971;-60
2023/03/19 01:23:50;;;;;;;;;;;;;;;19.81;41.95;95307.66;10471717;28;2142;-60
2023/03/19 01:28:51;;;;;;;;;;;;;;;19.79;41.94;95311.63;10471139;28;2259;-60
2023/03/19 01:33:53;;;;;;;;;;;;;;;19.79;41.83;95311.63;10476219;28;2270;-60
2023/03/19 01:38:58;;;;;;;;;;;;;;;19.78;41.74;95318.75;10457243;28;2019;-61
2023/03/19 01:43:59;;;;;;;;;;;;;;;19.79;41.76;95324.75;10474494;28;2029;-61
2023/03/19 01:49:00;;;;;;;;;;;;;;;19.76;41.77;95320.88;10476128;28;1961;-59
2023/03/19 01:54:04;;;;;;;;;;;;;;;19.75;41.78;95319.28;10476313;28;1967;-60
2023/03/19 01:59:09;;;;;;;;;;;;;;;19.74;41.68;95311.69;10472463;28;2026;-61
2023/03/19 02:04:10;;;;;;;;;;;;;;;19.74;41.62;95319.56;10484701;28;2073;-60
2023/03/19 02:09:12;;;;;;;;;;;;;;;19.72;41.40;95326.94;10485911;28;1980;-60
2023/03/19 02:14:13;;;;;;;;;;;;;;;19.72;41.56;95319.06;10476665;28;2168;-60
2023/03/19 02:19:16;;;;;;;;;;;;;;;19.72;41.42;95332.22;10478441;28;1975;-61
2023/03/19 02:24:18;;;;;;;;;;;;;;;19.70;41.42;95323.81;10452140;28;2007;-60
2023/03/19 02:29:18;;;;;;;;;;;;;;;19.69;41.44;95312.50;10495063;28;2035;-60
2023/03/19 02:34:19;;;;;;;;;;;;;;;19.68;41.17;95318.06;10479310;28;2238;-61
2023/03/19 02:39:30;;;;;;;;;;;;;;;19.67;41.21;95314.63;10485611;28;1940;-60
2023/03/19 02:44:40;;;;;;;;;;;;;;;19.66;41.27;95323.56;10465887;28;2057;-60
2023/03/19 02:49:41;;;;;;;;;;;;;;;19.65;41.25;95315.97;10470273;28;1957;-60
2023/03/19 02:54:42;;;;;;;;;;;;;;;19.65;41.11;95331.75;10469056;28;2164;-60
2023/03/19 02:59:42;;;;;;;;;;;;;;;19.64;41.09;95340.69;10462383;28;1980;-61
2023/03/19 03:04:42;;;;;;;;;;;;;;;19.63;40.83;95328.59;10486657;28;1892;-61
2023/03/19 03:09:43;;;;;;;;;;;;;;;19.62;41.07;95338.31;10476302;28;1949;-60
2023/03/19 03:14:43;;;;;;;;;;;;;;;19.61;41.01;95346.50;10482755;28;2151;-61
2023/03/19 03:19:43;;;;;;;;;;;;;;;19.61;40.88;95351.75;10462322;28;2139;-61
2023/03/19 03:24:44;;;;;;;;;;;;;;;19.60;40.83;95360.72;10489514;28;2078;-61
2023/03/19 03:29:45;;;;;;;;;;;;;;;19.59;40.69;95354.69;10482706;28;2095;-61
2023/03/19 03:34:46;;;;;;;;;;;;;;;19.58;40.71;95350.47;10478328;28;2213;-61
2023/03/19 03:39:47;;;;;;;;;;;;;;;19.58;40.66;95357.59;10474297;28;2023;-61
2023/03/19 03:44:47;;;;;;;;;;;;;;;19.56;40.48;95352.59;10474397;28;1954;-61
2023/03/19 03:49:47;;;;;;;;;;;;;;;19.55;40.21;95358.91;10480280;28;2174;-61
2023/03/19 03:54:48;;;;;;;;;;;;;;;19.55;40.39;95363.38;10476726;28;2187;-61
2023/03/19 03:59:49;;;;;;;;;;;;;;;19.55;40.43;95368.63;10476326;28;1960;-61
2023/03/19 04:04:59;;;;;;;;;;;;;;;19.53;40.47;95373.38;10434900;28;2207;-61
2023/03/19 04:09:59;;;;;;;;;;;;;;;19.53;40.33;95370.75;10480376;28;2032;-62
2023/03/19 04:15:01;;;;;;;;;;;;;;;19.51;40.19;95371.03;10471788;28;2171;-61
2023/03/19 04:20:03;;;;;;;;;;;;;;;19.49;40.24;95366.03;10482785;28;1918;-60
2023/03/19 04:25:07;;;;;;;;;;;;;;;19.50;40.09;95385.22;10475556;28;1960;-62
2023/03/19 04:30:08;;;;;;;;;;;;;;;19.50;40.15;95387.88;10477455;28;2014;-62
2023/03/19 04:35:09;;;;;;;;;;;;;;;19.48;40.00;95384.72;10475892;28;2321;-63
2023/03/19 04:40:09;;;;;;;;;;;;;;;19.46;40.06;95395.53;10474515;28;1913;-62
2023/03/19 04:45:10;;;;;;;;;;;;;;;19.45;40.04;95391.31;10476344;28;1988;-62
2023/03/19 04:50:11;;;;;;;;;;;;;;;19.44;39.60;95395.00;10478740;28;2077;-62
2023/03/19 04:55:12;;;;;;;;;;;;;;;19.44;39.98;95394.22;10475379;28;1989;-62
2023/03/19 05:00:15;;;;;;;;;;;;;;;19.43;39.73;95403.94;10477625;28;2112;-62
2023/03/19 05:05:16;;;;;;;;;;;;;;;19.43;39.64;95405.81;10476202;28;1981;-62
2023/03/19 05:10:17;;;;;;;;;;;;;;;19.43;39.52;95403.94;10456878;28;2037;-62
2023/03/19 05:15:17;;;;;;;;;;;;;;;19.48;39.42;95416.28;10459521;28;2174;-62
2023/03/19 05:20:18;;;;;;;;;;;;;;;19.54;39.36;95425.69;10475949;28;1903;-62
2023/03/19 05:25:18;;;;;;;;;;;;;;;19.59;38.99;95438.00;10478308;28;1990;-62
2023/03/19 05:30:19;;;;;;;;;;;;;;;19.66;38.86;95433.25;10460787;28;2102;-62
2023/03/19 05:35:20;;;;;;;;;;;;;;;19.73;38.62;95438.94;10480552;28;2001;-62
2023/03/19 05:40:21;;;;;;;;;;;;;;;19.82;38.55;95448.63;10476523;28;2068;-62
2023/03/19 05:45:21;;;;;;;;;;;;;;;19.90;38.44;95444.59;10466393;28;1986;-62
2023/03/19 05:50:22;;;;;;;;;;;;;;;19.95;38.05;95453.22;10471384;28;1941;-62
2023/03/19 05:55:22;;;;;;;;;;;;;;;20.02;37.94;95466.06;10452044;28;1982;-62
2023/03/19 06:00:22;;;;;;;;;;;;;;;20.08;37.85;95475.50;10472592;28;2217;-62
2023/03/19 06:05:23;;;;;;;;;;;;;;;20.10;37.75;95479.41;10475899;28;1956;-61
2023/03/19 06:10:33;;;;;;;;;;;;;;;20.18;37.68;95493.81;10475417;28;1967;-60
2023/03/19 06:15:44;;;;;;;;;;;;;;;20.20;37.42;95502.25;10454661;28;1925;-60
2023/03/19 06:20:47;;;;;;;;;;;;;;;20.23;37.36;95512.25;10475131;28;1947;-61
2023/03/19 06:25:53;;;;;;;;;;;;;;;20.28;37.53;95515.59;10471852;28;1991;-60
2023/03/19 06:30:54;;;;;;;;;;;;;;;20.31;37.15;95522.16;10471207;28;2094;-63
2023/03/19 06:35:55;;;;;;;;;;;;;;;20.36;37.66;95532.63;10471307;28;2211;-62
2023/03/19 06:40:56;;;;;;;;;;;;;;;20.40;37.55;95548.69;10470990;28;1908;-62
2023/03/19 06:45:56;;;;;;;;;;;;;;;20.44;37.81;95553.13;10456176;28;2139;-62
2023/03/19 06:50:56;;;;;;;;;;;;;;;20.46;37.43;95551.00;10477067;28;2024;-62
2023/03/19 06:55:57;;;;;;;;;;;;;;;20.47;37.19;95549.94;10477511;28;1955;-61
2023/03/19 07:00:58;;;;;;;;;;;;;;;20.49;37.12;95554.91;10474896;28;1990;-62
2023/03/19 07:05:58;;;;;;;;;;;;;;;20.51;36.77;95556.22;10484014;28;2227;-62
2023/03/19 07:11:03;;;;;;;;;;;;;;;20.52;36.85;95573.59;10478657;28;1998;-61
2023/03/19 07:16:03;;;;;;;;;;;;;;;20.54;36.91;95575.94;10475811;28;1941;-61
2023/03/19 07:21:03;;;;;;;;;;;;;;;20.54;36.65;95587.25;10474464;28;1970;-62
2023/03/19 07:26:04;;;;;;;;;;;;;;;20.55;36.70;95599.34;10495048;28;2117;-62
2023/03/19 07:31:06;;;;;;;;;;;;;;;20.57;36.55;95614.88;10481597;28;2098;-60
2023/03/19 07:36:08;;;;;;;;;;;;;;;20.58;36.45;95621.72;10470656;28;1946;-61
2023/03/19 07:41:08;;;;;;;;;;;;;;;20.59;36.81;95625.91;10470673;28;1995;-62
2023/03/19 07:46:09;;;;;;;;;;;;;;;20.61;36.64;95623.81;10479267;28;2035;-62
2023/03/19 07:51:09;;;;;;;;;;;;;;;20.59;36.68;95629.34;10485098;28;2250;-62
2023/03/19 07:56:10;;;;;;;;;;;;;;;20.60;36.50;95641.47;10462961;28;2148;-62
2023/03/19 08:01:10;;;;;;;;;;;;;;;20.60;36.64;95638.81;10453681;28;2018;-62
2023/03/19 08:06:11;;;;;;;;;;;;;;;20.61;36.50;95637.75;10477111;28;2046;-61
2023/03/19 08:11:11;;;;;;;;;;;;;;;20.60;36.29;95633.56;10473551;28;2007;-62
2023/03/19 08:16:12;;;;;;;;;;;;;;;20.60;36.30;95633.56;10472245;28;1962;-62
2023/03/19 08:21:13;;;;;;;;;;;;;;;20.58;36.49;95638.31;10481002;28;2090;-62
2023/03/19 08:26:14;;;;;;;;;;;;;;;20.55;36.50;95641.47;10454632;28;2060;-61
2023/03/19 08:31:14;;;;;;;;;;;;;;;20.52;36.71;95636.78;10480522;28;2033;-61
2023/03/19 08:36:21;;;;;;;;;;;;;;;20.50;36.74;95632.84;10484136;28;2003;-62
2023/03/19 08:41:22;;;;;;;;;;;;;;;20.47;36.57;95644.72;10460348;28;2081;-61
2023/03/19 08:46:23;;;;;;;;;;;;;;;20.43;36.80;95654.22;10476153;28;1975;-61
2023/03/19 08:51:25;;;;;;;;;;;;;;;20.41;36.70;95660.81;10477382;28;1966;-62
2023/03/19 08:56:25;;;;;;;;;;;;;;;20.40;36.95;95660.06;10475540;28;2210;-61
2023/03/19 09:01:26;;;;;;;;;;;;;;;20.37;36.74;95670.31;10492365;28;1901;-61
2023/03/19 09:06:26;;;;;;;;;;;;;;;20.33;36.87;95672.72;10477026;28;1985;-61
2023/03/19 09:11:26;;;;;;;;;;;;;;;20.30;36.67;95678.53;10471853;28;1970;-61
2023/03/19 09:16:28;;;;;;;;;;;;;;;20.27;36.96;95676.44;10475343;28;1979;-61
2023/03/19 09:21:30;;;;;;;;;;;;;;;20.25;37.25;95681.19;10484399;28;2164;-62
2023/03/19 09:26:31;;;;;;;;;;;;;;;20.22;36.78;95681.72;10477602;28;2130;-61
2023/03/19 09:31:33;;;;;;;;;;;;;;;20.21;36.94;95677.53;10477489;28;1948;-61
2023/03/19 09:36:36;;;;;;;;;;;;;;;20.17;37.24;95682.50;10464332;28;2032;-61
2023/03/19 09:41:40;;;;;;;;;;;;;;;20.15;37.02;95691.75;10471418;28;1967;-62
2023/03/19 09:46:45;;;;;;;;;;;;;;;20.14;37.16;95698.06;10474184;28;1938;-62
2023/03/19 09:51:47;;;;;;;;;;;;;;;20.10;36.99;95708.34;10469991;28;1964;-61
2023/03/19 09:56:47;;;;;;;;;;;;;;;20.09;37.08;95704.13;10466555;28;1957;-61
2023/03/19 10:01:52;;;;;;;;;;;;;;;20.08;36.97;95710.47;10439656;28;1934;-61
2023/03/19 10:06:54;;;;;;;;;;;;;;;20.05;36.96;95711.00;10468711;28;2174;-61
2023/03/19 10:11:56;;;;;;;;;;;;;;;20.04;37.11;95703.38;10476429;28;1932;-61
2023/03/19 10:16:57;;;;;;;;;;;;;;;20.01;36.93;95699.44;10473613;28;2147;-61
2023/03/19 10:22:02;;;;;;;;;;;;;;;20.01;36.86;95699.44;10466600;28;2075;-61
2023/03/19 10:27:13;;;;;;;;;;;;;;;19.98;37.08;95688.69;10462008;28;1976;-61
2023/03/19 10:32:14;;;;;;;;;;;;;;;19.99;37.06;95695.53;10475334;28;1953;-61
2023/03/19 10:37:18;;;;;;;;;;;;;;;19.96;37.10;95693.44;10482434;28;2017;-61
2023/03/19 10:42:34;;;;;;;;;;;;;;;19.94;37.27;95693.72;10491256;28;2022;-61
2023/03/19 10:47:38;;;;;;;;;;;;;;;19.94;37.11;95700.81;10474378;28;2154;-62
2023/03/19 10:52:38;;;;;;;;;;;;;;;19.93;37.11;95689.50;10474660;28;1971;-61
2023/03/19 10:57:40;;;;;;;;;;;;;;;19.91;37.30;95685.53;10478558;28;2003;-61
2023/03/19 11:02:52;;;;;;;;;;;;;;;19.88;37.38;95683.47;10478094;28;1974;-61
2023/03/19 11:08:00;;;;;;;;;;;;;;;19.89;37.18;95674.50;10480894;28;2019;-61
2023/03/19 11:13:13;;;;;;;;;;;;;;;19.88;37.11;95667.69;10478404;28;1949;-61
2023/03/19 11:18:21;;;;;;;;;;;;;;;19.87;37.37;95672.16;10478480;28;2030;-61
2023/03/19 11:23:23;;;;;;;;;;;;;;;19.86;37.37;95670.59;10481181;28;1943;-61
2023/03/19 11:28:25;;;;;;;;;;;;;;;19.85;37.49;95668.22;10467262;28;1968;-62
2023/03/19 11:33:25;;;;;;;;;;;;;;;19.84;37.29;95666.66;10476141;28;2053;-61
2023/03/19 11:38:29;;;;;;;;;;;;;;;19.82;37.24;95660.88;10479016;28;2040;-62
2023/03/19 11:43:37;;;;;;;;;;;;;;;19.82;37.12;95659.03;10474403;28;1982;-62
2023/03/19 11:48:43;;;;;;;;;;;;;;;19.81;37.32;95656.66;10475271;28;1963;-61
2023/03/19 11:53:47;;;;;;;;;;;;;;;19.82;37.55;95645.09;10497000;28;1917;-61
2023/03/19 11:59:06;;;;;;;;;;;;;;;19.84;37.78;95641.16;10475126;28;2033;-61
2023/03/19 12:04:26;;;;;;;;;;;;;;;19.84;37.93;95642.97;10480734;28;2030;-62
2023/03/19 12:09:30;;;;;;;;;;;;;;;19.86;39.02;95627.72;10481478;28;2342;-61
2023/03/19 12:14:43;;;;;;;;;;;;;;;19.89;39.83;95627.16;10480211;28;2016;-61
2023/03/19 12:19:44;;;;;;;;;;;;;;;19.96;40.53;95622.41;10475675;28;1928;-59
2023/03/19 12:24:52;;;;;;;;;;;;;;;19.96;40.70;95623.19;10474227;28;1960;-62
2023/03/19 12:29:56;;;;;;;;;;;;;;;19.97;40.54;95613.47;10475279;28;2007;-64
2023/03/19 12:34:57;;;;;;;;;;;;;;;20.03;40.50;95607.09;10477256;28;1939;-62
2023/03/19 12:40:17;;;;;;;;;;;;;;;20.04;40.54;95606.03;10442374;28;1933;-62
2023/03/19 12:45:26;;;;;;;;;;;;;;;20.03;40.49;95601.84;10480719;28;2087;-62
2023/03/19 12:50:27;;;;;;;;;;;;;;;20.03;40.49;95596.56;10484577;28;1960;-61
2023/03/19 12:55:35;;;;;;;;;;;;;;;20.04;40.35;95603.41;10469245;28;1974;-63
2023/03/19 13:00:56;;;;;;;;;;;;;;;20.03;40.20;95586.06;10494540;28;2060;-63
2023/03/19 13:05:58;;;;;;;;;;;;;;;20.01;40.13;95588.94;10481543;28;1978;-63
2023/03/19 13:10:59;;;;;;;;;;;;;;;20.02;40.25;95582.63;10473580;28;2030;-62
2023/03/19 13:16:03;;;;;;;;;;;;;;;19.99;39.81;95569.25;10451966;28;2183;-62
2023/03/19 13:21:12;;;;;;;;;;;;;;;19.95;39.80;95582.13;10472443;28;1988;-63
2023/03/19 13:26:13;;;;;;;;;;;;;;;19.92;39.77;95577.44;10473817;28;1910;-62
2023/03/19 13:31:17;;;;;;;;;;;;;;;19.91;39.82;95575.06;10474639;28;1976;-61
2023/03/19 13:36:18;;;;;;;;;;;;;;;19.89;40.06;95575.34;10456102;28;1971;-62
2023/03/19 13:41:31;;;;;;;;;;;;;;;19.88;40.12;95563.25;10476248;28;2110;-62
2023/03/19 13:46:36;;;;;;;;;;;;;;;19.87;40.29;95560.88;10476193;28;1955;-62
2023/03/19 13:51:36;;;;;;;;;;;;;;;19.85;40.15;95563.78;10454427;28;2054;-62
2023/03/19 13:57:13;;;;;;;;;;;;;;;19.83;40.54;95554.59;10484953;28;2003;-61
2023/03/19 14:02:14;;;;;;;;;;;;;;;19.83;40.74;95550.13;10438512;28;2023;-62
2023/03/19 14:07:16;;;;;;;;;;;;;;;19.83;40.67;95559.84;10490512;28;2272;-62
2023/03/19 14:12:17;;;;;;;;;;;;;;;19.81;40.63;95557.50;10484989;28;1966;-62
2023/03/19 14:17:20;;;;;;;;;;;;;;;19.81;40.60;95557.50;10490498;28;2032;-65
2023/03/19 14:22:37;;;;;;;;;;;;;;;19.86;43.02;95549.59;10488134;28;1960;-65
2023/03/19 14:27:38;;;;;;;;;;;;;;;19.94;44.37;95545.59;10483704;28;1944;-67
2023/03/19 14:32:39;;;;;;;;;;;;;;;19.99;45.14;95540.31;10469079;28;1995;-66
2023/03/19 14:37:43;;;;;;;;;;;;;;;20.03;45.17;95539.47;10469001;28;1966;-65
2023/03/19 14:42:52;;;;;;;;;;;;;;;20.06;45.17;95535.50;10467342;28;1962;-65
2023/03/19 14:47:59;;;;;;;;;;;;;;;20.10;45.12;95532.03;10484792;28;2094;-66
2023/03/19 14:53:10;;;;;;;;;;;;;;;20.09;44.23;95535.72;10476921;28;2043;-64
2023/03/19 14:58:11;;;;;;;;;;;;;;;20.13;44.14;95525.47;10483642;28;2038;-60
2023/03/19 15:03:16;;;;;;;;;;;;;;;20.18;44.34;95525.41;10480765;28;2177;-59
2023/03/19 15:08:21;;;;;;;;;;;;;;;20.23;43.99;95514.88;10463787;28;1951;-60
2023/03/19 15:13:40;;;;;;;;;;;;;;;20.28;43.87;95512.19;10478070;28;1860;-59
2023/03/19 15:18:40;;;;;;;;;;;;;;;20.32;43.87;95505.28;10481079;28;1971;-59
2023/03/19 15:23:43;;;;;;;;;;;;;;;20.37;43.03;95501.84;10475243;28;2139;-58
2023/03/19 15:28:45;;;;;;;;;;;;;;;20.43;43.51;95506.78;10485692;28;2047;-62
2023/03/19 15:33:46;;;;;;;;;;;;;;;20.53;44.66;95511.94;10477709;28;2010;-58
2023/03/19 15:38:49;;;;;;;;;;;;;;;20.57;45.13;95510.31;10483226;28;1928;-59
2023/03/19 15:43:49;;;;;;;;;;;;;;;20.66;46.06;95510.50;10458569;28;1960;-59
2023/03/19 15:49:03;;;;;;;;;;;;;;;20.71;46.21;95502.56;10475046;28;1969;-58
2023/03/19 15:54:04;;;;;;;;;;;;;;;20.76;46.64;95505.91;10476632;28;1964;-59
2023/03/19 15:59:05;;;;;;;;;;;;;;;20.80;47.41;95506.94;10473926;28;1993;-58
2023/03/19 16:04:06;;;;;;;;;;;;;;;20.81;47.25;95505.09;10475924;28;1948;-59
2023/03/19 16:09:12;;;;;;;;;;;;;;;20.82;47.73;95512.69;10459308;28;2013;-58
2023/03/19 16:14:13;;;;;;;;;;;;;;;20.79;46.95;95515.88;10474256;28;1921;-58
2023/03/19 16:19:31;;;;;;;;;;;;;;;20.84;47.72;95518.47;10476740;28;1988;-59
2023/03/19 16:24:33;;;;;;;;;;;;;;;20.82;47.19;95525.88;10470993;28;1940;-58
2023/03/19 16:29:35;;;;;;;;;;;;;;;20.82;47.70;95531.13;10474418;28;1960;-58
2023/03/19 16:34:41;;;;;;;;;;;;;;;20.86;46.94;95528.72;10482566;28;2243;-58
2023/03/19 16:39:41;;;;;;;;;;;;;;;20.83;47.55;95537.19;10480166;28;2194;-57
2023/03/19 16:44:45;;;;;;;;;;;;;;;20.83;47.20;95538.00;10492836;28;1956;-58
2023/03/19 16:49:46;;;;;;;;;;;;;;;20.80;47.43;95554.34;10481385;28;2066;-59
2023/03/19 16:54:47;;;;;;;;;;;;;;;20.85;47.64;95550.88;10478622;28;1935;-59
2023/03/19 16:59:47;;;;;;;;;;;;;;;20.82;47.91;95546.94;10472027;28;1936;-59
2023/03/19 17:04:47;;;;;;;;;;;;;;;20.85;47.72;95551.66;10471811;28;1979;-58
2023/03/19 17:09:48;;;;;;;;;;;;;;;20.83;47.65;95560.91;10476604;28;1972;-58
2023/03/19 17:14:49;;;;;;;;;;;;;;;20.85;47.25;95564.84;10478170;28;1927;-58
2023/03/19 17:19:50;;;;;;;;;;;;;;;20.82;48.02;95569.88;10475196;28;2134;-58
2023/03/19 17:24:50;;;;;;;;;;;;;;;20.81;47.39;95573.56;10467706;28;2126;-59
2023/03/19 17:29:50;;;;;;;;;;;;;;;20.80;47.42;95574.63;10449256;28;1958;-58
2023/03/19 17:34:51;;;;;;;;;;;;;;;20.77;46.78;95585.75;10476735;28;1966;-59
2023/03/19 17:39:51;;;;;;;;;;;;;;;20.72;46.09;95586.56;10478890;28;1963;-58
2023/03/19 17:44:51;;;;;;;;;;;;;;;20.69;46.11;95581.84;10450752;28;1947;-58
2023/03/19 17:49:52;;;;;;;;;;;;;;;20.68;46.09;95577.66;10467910;28;2024;-59
2023/03/19 17:54:52;;;;;;;;;;;;;;;20.60;45.31;95591.41;10472486;28;2016;-59
2023/03/19 17:59:53;;;;;;;;;;;;;;;20.61;45.15;95592.22;10476277;28;1971;-59
2023/03/19 18:04:55;;;;;;;;;;;;;;;20.58;44.96;95598.03;10480989;28;1972;-59
2023/03/19 18:09:55;;;;;;;;;;;;;;;20.55;45.05;95596.72;10481340;28;1947;-59
2023/03/19 18:14:55;;;;;;;;;;;;;;;20.57;45.26;95594.59;10477740;28;1991;-59
2023/03/19 18:19:56;;;;;;;;;;;;;;;20.57;44.70;95606.97;10478034;28;1975;-59
2023/03/19 18:24:56;;;;;;;;;;;;;;;20.53;44.81;95604.09;10473954;28;1956;-59
2023/03/19 18:29:57;;;;;;;;;;;;;;;20.49;45.02;95600.47;10463860;28;1973;-59
2023/03/19 18:34:57;;;;;;;;;;;;;;;20.49;45.19;95608.34;10447555;28;1952;-58
2023/03/19 18:39:58;;;;;;;;;;;;;;;20.47;44.95;95602.59;10465662;28;1944;-59
2023/03/19 18:44:58;;;;;;;;;;;;;;;20.45;45.17;95604.72;10454968;28;2011;-59
2023/03/19 18:49:58;;;;;;;;;;;;;;;20.43;44.98;95612.09;10456608;28;1975;-59
2023/03/19 18:54:59;;;;;;;;;;;;;;;20.45;44.63;95620.50;10473862;28;1920;-59
2023/03/19 19:00:00;;;;;;;;;;;;;;;20.44;44.38;95621.59;10477052;28;1954;-59
2023/03/19 19:05:00;;;;;;;;;;;;;;;20.42;45.49;95626.34;10473599;28;1941;-59
2023/03/19 19:10:04;;;;;;;;;;;;;;;20.41;45.23;95624.75;10482892;28;1977;-61
2023/03/19 19:15:04;;;;;;;;;;;;;;;20.41;45.24;95629.22;10475456;28;2017;-59
2023/03/19 19:20:05;;;;;;;;;;;;;;;20.39;45.83;95628.72;10477162;28;1981;-62
2023/03/19 19:25:05;;;;;;;;;;;;;;;20.40;46.00;95639.00;10474910;28;2018;-63
2023/03/19 19:30:08;;;;;;;;;;;;;;;20.40;46.40;95641.63;10472866;28;1980;-62
2023/03/19 19:35:13;;;;;;;;;;;;;;;20.41;45.45;95648.44;10457718;28;1937;-62
2023/03/19 19:40:21;;;;;;;;;;;;;;;20.42;45.12;95651.88;10472754;28;1988;-63
2023/03/19 19:45:21;;;;;;;;;;;;;;;20.40;45.87;95670.59;10477463;28;2107;-62
2023/03/19 19:50:24;;;;;;;;;;;;;;;20.41;45.57;95668.72;10481977;28;1920;-61
2023/03/19 19:55:24;;;;;;;;;;;;;;;20.43;45.58;95675.28;10476363;28;1972;-61
2023/03/19 20:00:25;;;;;;;;;;;;;;;20.42;45.49;95684.25;10465051;28;2043;-62
2023/03/19 20:05:28;;;;;;;;;;;;;;;20.45;45.22;95693.44;10479328;28;1894;-61
2023/03/19 20:10:28;;;;;;;;;;;;;;;20.46;45.04;95695.81;10476327;28;1964;-62
2023/03/19 20:15:32;;;;;;;;;;;;;;;20.47;44.76;95701.84;10469295;28;1998;-62
2023/03/19 20:20:33;;;;;;;;;;;;;;;20.48;44.66;95713.97;10471958;28;1982;-60
2023/03/19 20:25:33;;;;;;;;;;;;;;;20.50;44.70;95719.75;10472785;28;2034;-59
2023/03/19 20:30:34;;;;;;;;;;;;;;;20.50;44.43;95728.44;10466484;28;2016;-61
2023/03/19 20:35:35;;;;;;;;;;;;;;;20.50;44.44;95725.81;10456011;28;1939;-61
2023/03/19 20:40:37;;;;;;;;;;;;;;;20.51;44.07;95731.84;10474529;28;1963;-60
2023/03/19 20:45:38;;;;;;;;;;;;;;;20.49;44.22;95737.38;10461714;28;1967;-61
2023/03/19 20:50:38;;;;;;;;;;;;;;;20.48;44.36;95746.34;10466082;28;1937;-60
2023/03/19 20:55:39;;;;;;;;;;;;;;;20.46;44.07;95756.38;10464875;28;1974;-61
2023/03/19 21:00:39;;;;;;;;;;;;;;;20.43;44.22;95762.16;10463812;28;1946;-60
2023/03/19 21:05:40;;;;;;;;;;;;;;;20.42;44.41;95773.78;10472958;28;2011;-61
2023/03/19 21:10:42;;;;;;;;;;;;;;;20.41;44.08;95769.56;10470839;28;1956;-60
2023/03/19 21:15:45;;;;;;;;;;;;;;;20.37;44.14;95765.88;10475813;28;1940;-60
2023/03/19 21:20:47;;;;;;;;;;;;;;;20.35;44.39;95770.63;10468927;28;2022;-61
2023/03/19 21:25:52;;;;;;;;;;;;;;;20.33;44.38;95780.66;10453762;28;1982;-61
2023/03/19 21:30:52;;;;;;;;;;;;;;;20.30;43.81;95781.19;10438481;28;1997;-61
2023/03/19 21:35:54;;;;;;;;;;;;;;;20.27;43.91;95792.25;10466037;28;1968;-61
2023/03/19 21:40:57;;;;;;;;;;;;;;;20.24;44.40;95787.53;10450305;28;1979;-60
2023/03/19 21:45:57;;;;;;;;;;;;;;;20.23;43.94;95791.22;10467832;28;1975;-61
2023/03/19 21:50:59;;;;;;;;;;;;;;;20.20;44.38;95797.03;10453536;28;2033;-61
2023/03/19 21:55:59;;;;;;;;;;;;;;;20.17;44.42;95793.03;10469046;28;2020;-60
2023/03/19 22:01:01;;;;;;;;;;;;;;;20.14;44.53;95793.59;10466984;28;2004;-61
2023/03/19 22:06:02;;;;;;;;;;;;;;;20.12;44.12;95800.19;10449292;28;1959;-61
2023/03/19 22:11:04;;;;;;;;;;;;;;;20.11;43.96;95799.38;10463292;28;1968;-61
2023/03/19 22:16:05;;;;;;;;;;;;;;;20.09;43.99;95800.75;10467090;28;1933;-61
2023/03/19 22:21:08;;;;;;;;;;;;;;;20.07;44.33;95803.63;10473461;28;2107;-61
2023/03/19 22:26:20;;;;;;;;;;;;;;;20.04;44.17;95800.75;10482901;28;2084;-61
2023/03/19 22:31:21;;;;;;;;;;;;;;;20.03;44.29;95804.44;10482343;28;1956;-61
2023/03/19 22:36:21;;;;;;;;;;;;;;;20.02;44.13;95802.84;10483222;28;1987;-61
2023/03/19 22:41:26;;;;;;;;;;;;;;;20.01;44.22;95806.56;10471787;28;1963;-61
2023/03/19 22:46:26;;;;;;;;;;;;;;;19.99;44.20;95803.41;10483033;28;2089;-61
2023/03/19 22:51:26;;;;;;;;;;;;;;;19.97;44.10;95816.03;10469056;28;1983;-58
2023/03/19 22:56:28;;;;;;;;;;;;;;;19.96;43.83;95806.56;10468119;28;2086;-61
2023/03/19 23:01:31;;;;;;;;;;;;;;;19.94;43.92;95803.41;10474918;28;2020;-61
2023/03/19 23:06:31;;;;;;;;;;;;;;;19.91;43.98;95804.72;10465009;28;1944;-61
2023/03/19 23:11:42;;;;;;;;;;;;;;;19.91;43.81;95809.97;10471459;28;2099;-61
2023/03/19 23:16:42;;;;;;;;;;;;;;;19.90;43.45;95810.25;10467422;28;1971;-61
2023/03/19 23:21:43;;;;;;;;;;;;;;;19.87;43.65;95811.56;10468290;28;1924;-61
2023/03/19 23:26:44;;;;;;;;;;;;;;;19.87;43.57;95811.56;10466129;28;2036;-61
2023/03/19 23:31:45;;;;;;;;;;;;;;;19.86;43.68;95806.59;10453405;28;2072;-61
2023/03/19 23:36:46;;;;;;;;;;;;;;;19.85;43.28;95810.25;10468942;28;2122;-61
2023/03/19 23:41:47;;;;;;;;;;;;;;;19.83;43.35;95813.16;10463070;28;2049;-61
2023/03/19 23:46:48;;;;;;;;;;;;;;;19.82;43.21;95816.06;10461139;28;2035;-61
2023/03/19 23:51:48;;;;;;;;;;;;;;;19.81;43.25;95819.75;10469335;28;2015;-61
2023/03/19 23:56:48;;;;;;;;;;;;;;;19.79;43.27;95821.84;10468519;28;2024;-61
